Monday, October 23, 2017, 1:17 PM EDT
Back to Local

KOWD, Norwood Memorial Airport

Location: Norwood, MA, United States Lat: 42.183
Local Time: 1:17 PM EDT (17:17 GMT) Lon: -71.167
Time Zone: US/Eastern Elev: 49 ft

Show me the last for .
Show Decoded

2017-10-23 13:05 METAR KOWD 231705Z 19005KT 10SM SCT014 BKN020 20/16 A3029 RMK AO2 T02000156 =
2017-10-23 12:53 METAR KOWD 231653Z VRB05KT 10SM BKN014 BKN020 20/16 A3030 RMK AO2 SLP258
                 T02000161 =
2017-10-23 12:30 METAR KOWD 231630Z 13005KT 10SM BKN010 OVC017 19/16 A3031 RMK AO2 T01890161 =
2017-10-23 11:53 METAR KOWD 231553Z 25003KT 10SM OVC007 18/16 A3033 RMK AO2 CIG 006V011 SLP270
                 T01780156 =
2017-10-23 11:18 METAR KOWD 231518Z 00000KT 9SM OVC005 17/15 A3033 RMK AO2 T01670150 =
2017-10-23 10:53 METAR KOWD 231453Z 00000KT 7SM OVC004 16/14 A3035 RMK AO2 SLP276 T01610144 58013
                 =
2017-10-23 10:37 METAR KOWD 231437Z 00000KT 2SM BR OVC003 16/14 A3036 RMK AO2 T01560144 =
2017-10-23 09:53 METAR KOWD 231353Z 00000KT 1/2SM FG VV002 14/13 A3037 RMK AO2 SLP283 T01440133 =
2017-10-23 08:53 METAR KOWD 231253Z 00000KT 1/4SM FG VV002 13/13 A3039 RMK AO2 SLP290 T01330128 =
2017-10-23 07:53 METAR KOWD 231153Z 00000KT 1/4SM FG VV002 13/13 A3038 RMK AO2 SLP289 T01280128
                 10139 20128 53002 =
2017-10-23 06:53 METAR KOWD 231053Z 00000KT 1/2SM FG VV002 13/12 A3037 RMK AO2 SLP284 T01280122 =
2017-10-23 06:05 METAR KOWD 231005Z AUTO 00000KT 1/2SM FG VV002 13/12 A3037 RMK AO2 T01280122 =
2017-10-23 05:53 METAR KOWD 230953Z AUTO 00000KT 1/2SM FG VV003 13/12 A3037 RMK AO2 SLP284
                 T01280122 =
2017-10-23 05:42 METAR KOWD 230942Z AUTO 00000KT 3/4SM BR VV003 13/12 A3037 RMK AO2 T01280122 =
2017-10-23 05:30 METAR KOWD 230930Z AUTO 00000KT 1 1/4SM BR OVC002 13/12 A3037 RMK AO2 T01280122
                 =
2017-10-23 04:53 METAR KOWD 230853Z AUTO 09003KT 1/2SM FG VV002 13/13 A3038 RMK AO2 SLP286
                 T01330128 55006 =
2017-10-23 03:53 METAR KOWD 230753Z AUTO 00000KT 1/4SM FG VV002 13/13 A3038 RMK AO2 SLP286
                 T01330128 =
2017-10-23 02:53 METAR KOWD 230653Z AUTO 00000KT 1/4SM FG VV002 13/13 A3039 RMK AO2 SLP289
                 T01330128 =
2017-10-23 02:31 METAR KOWD 230631Z AUTO 00000KT 3/4SM BR OVC002 13/13 A3039 RMK AO2 T01330128 =
2017-10-23 02:04 METAR KOWD 230604Z AUTO 00000KT 1 1/2SM BR OVC002 14/13 A3039 RMK AO2 T01390133
                 =
2017-10-23 01:53 METAR KOWD 230553Z AUTO 00000KT 2SM BR OVC002 14/13 A3040 RMK AO2 SLP292
                 T01390133 10144 20139 58006 =
2017-10-23 01:27 METAR KOWD 230527Z AUTO 00000KT 1SM BR OVC003 14/13 A3040 RMK AO2 T01440133 =
2017-10-23 01:19 METAR KOWD 230519Z AUTO 00000KT 2 1/2SM BR OVC003 14/13 A3040 RMK AO2 T01440133
                 =
2017-10-23 01:11 METAR KOWD 230511Z AUTO 00000KT 3SM BR OVC002 14/13 A3040 RMK AO2 T01390133 =
2017-10-23 01:00 METAR KOWD 230500Z AUTO 00000KT 2 1/2SM BR OVC002 14/13 A3041 RMK AO2 T01440133
                 =
2017-10-23 00:53 METAR KOWD 230453Z AUTO 00000KT 1 3/4SM BR OVC002 14/13 A3041 RMK AO2 SLP296
                 T01440133 402610056 =
2017-10-22 23:53 METAR KOWD 230353Z AUTO 00000KT 1SM BR OVC002 14/13 A3041 RMK AO2 SLP297
                 T01440133 =
2017-10-22 23:09 METAR KOWD 230309Z AUTO 00000KT 1 1/2SM BR OVC002 14/13 A3041 RMK AO2 T01440133
                 =
2017-10-22 23:00 METAR KOWD 230300Z AUTO 00000KT 1 1/4SM BR OVC003 14/14 A3041 RMK AO2 T01440139
                 =
2017-10-22 22:53 METAR KOWD 230253Z AUTO 00000KT 3/4SM BR OVC003 14/14 A3041 RMK AO2 SLP298
                 T01440139 50005 =
2017-10-22 22:45 METAR KOWD 230245Z AUTO 00000KT 1 3/4SM BR OVC003 14/13 A3042 RMK AO2 T01440133
                 =
2017-10-22 21:53 METAR KOWD 230153Z 00000KT 5SM BR OVC004 14/13 A3042 RMK AO2 SLP300 T01440133 =
2017-10-22 20:53 METAR KOWD 230053Z 04004KT 6SM BR OVC004 14/13 A3041 RMK AO2 SLP296 T01440133 =
2017-10-22 20:40 METAR KOWD 230040Z 00000KT 7SM OVC004 13/12 A3041 RMK AO2 T01280117 =
2017-10-22 20:36 METAR KOWD 230036Z 05003KT 2 1/2SM BR OVC005 12/11 A3041 RMK AO2 T01170111 =
2017-10-22 20:04 METAR KOWD 230004Z 00000KT 3/4SM BR BKN005 11/11 A3040 RMK AO2 T01110106 =
2017-10-22 19:53 METAR KOWD 222353Z 00000KT 6SM BR BKN005 12/11 A3040 RMK AO2 SLP294 T01170111
                 10250 20117 53006 =
2017-10-22 19:37 METAR KOWD 222337Z 00000KT 9SM SCT003 12/11 A3040 RMK AO2 T01220111 =
2017-10-22 18:53 METAR KOWD 222253Z 00000KT 10SM CLR 14/13 A3039 RMK AO2 SLP290 T01390128 =
2017-10-22 17:53 METAR KOWD 222153Z 10003KT 10SM CLR 16/13 A3039 RMK AO2 SLP289 T01610133 =
2017-10-22 16:53 METAR KOWD 222053Z 05005KT 10SM CLR 18/14 A3038 RMK AO2 SLP287 T01780139 53004 =
2017-10-22 15:53 METAR KOWD 221953Z 03006KT 10SM CLR 19/14 A3038 RMK AO2 SLP285 T01940139 =
2017-10-22 14:53 METAR KOWD 221853Z 03008KT 10SM CLR 22/14 A3037 RMK AO2 SLP284 T02220139 =
2017-10-22 13:53 METAR KOWD 221753Z 04006KT 10SM CLR 24/12 A3037 RMK AO2 SLP284 T02440117 10261
                 20078 56010 =

Support USWX by starting your Amazon purchase here.